Time;durP1;ratioP1;P1;durP2;ratioP2;P2;SDS_P1;SDS_P2;PMS_P1;PMS_P2;Temp;Humidity;BMP_temperature;BMP_pressure;BME280_temperature;BME280_humidity;BME280_pressure;Samples;Min_cycle;Max_cycle;Signal;HPM_P1;HPM_P2
2021/03/27 00:00:30;;;;;;;0.65;0.50;;;18.40;61.80;;;;;;5049676;28;20029;-36
2021/03/27 00:02:59;;;;;;;0.60;0.60;;;18.40;61.70;;;;;;5050788;28;20408;-34
2021/03/27 00:05:28;;;;;;;0.75;0.45;;;18.40;61.90;;;;;;5047106;28;20029;-35
2021/03/27 00:08:17;;;;;;;0.47;0.43;;;18.40;61.90;;;;;;5052086;28;20037;-35
2021/03/27 00:10:55;;;;;;;1.17;0.40;;;18.40;62.00;;;;;;5053619;28;20560;-35
2021/03/27 00:13:23;;;;;;;0.60;0.50;;;18.40;61.90;;;;;;5047387;28;20493;-35
2021/03/27 00:15:55;;;;;;;4.10;0.40;;;18.40;62.00;;;;;;5053207;28;20033;-36
2021/03/27 00:18:31;;;;;;;0.75;0.47;;;18.40;61.90;;;;;;5036342;28;20025;-35
2021/03/27 00:21:04;;;;;;;0.50;0.50;;;18.30;61.90;;;;;;5048409;28;20033;-36
2021/03/27 00:23:33;;;;;;;1.40;0.40;;;18.30;62.00;;;;;;5026209;28;20100;-34
2021/03/27 00:26:06;;;;;;;0.93;0.40;;;18.30;62.10;;;;;;5043018;28;20044;-35
2021/03/27 00:28:44;;;;;;;1.45;0.50;;;18.30;62.00;;;;;;5045981;28;20064;-34
2021/03/27 00:31:19;;;;;;;0.68;0.50;;;18.30;62.20;;;;;;5048277;28;20025;-34
2021/03/27 00:33:52;;;;;;;0.57;0.30;;;18.30;62.10;;;;;;5040495;28;20026;-35
2021/03/27 00:36:27;;;;;;;0.60;0.40;;;18.30;62.10;;;;;;5048992;28;20411;-35
2021/03/27 00:39:02;;;;;;;0.40;0.40;;;18.30;62.10;;;;;;5047879;28;20486;-38
2021/03/27 00:41:37;;;;;;;0.40;0.40;;;18.30;62.20;;;;;;5053278;28;20044;-34
2021/03/27 00:44:03;;;;;;;;;;;18.30;62.10;;;;;;5048794;28;20401;-36
2021/03/27 00:46:29;;;;;;;2.00;0.50;;;18.30;62.10;;;;;;5051305;28;20007;-35
2021/03/27 00:48:58;;;;;;;1.70;0.40;;;18.30;62.00;;;;;;5034863;28;20508;-34
2021/03/27 00:51:50;;;;;;;1.20;0.50;;;18.30;62.10;;;;;;5035851;28;20116;-34
2021/03/27 00:54:37;;;;;;;1.05;0.40;;;18.30;62.10;;;;;;5041837;28;20364;-34
2021/03/27 00:57:14;;;;;;;0.63;0.35;;;18.30;62.10;;;;;;5046693;28;20562;-33
2021/03/27 01:00:03;;;;;;;0.73;0.40;;;18.20;62.00;;;;;;5048278;28;20041;-35
2021/03/27 01:02:29;;;;;;;0.40;0.30;;;18.20;62.00;;;;;;4999326;28;20500;-34
2021/03/27 01:04:55;;;;;;;0.32;0.30;;;18.20;61.80;;;;;;4983356;28;20038;-34
2021/03/27 01:07:21;;;;;;;0.30;0.30;;;18.20;61.90;;;;;;4983403;28;20526;-35
2021/03/27 01:09:51;;;;;;;0.50;0.50;;;18.20;61.80;;;;;;4995157;28;20133;-34
2021/03/27 01:12:37;;;;;;;1.15;0.40;;;18.20;62.30;;;;;;4991547;28;20031;-34
2021/03/27 01:15:15;;;;;;;0.50;0.40;;;18.20;61.90;;;;;;4982099;28;20427;-34
2021/03/27 01:17:42;;;;;;;1.13;0.40;;;18.20;61.80;;;;;;4986000;28;20089;-35
2021/03/27 01:20:14;;;;;;;0.60;0.60;;;18.30;61.70;;;;;;4983549;28;20030;-35
2021/03/27 01:22:40;;;;;;;0.30;0.30;;;18.20;61.80;;;;;;4994323;28;20492;-34
2021/03/27 01:25:06;;;;;;;0.45;0.40;;;18.20;61.80;;;;;;4995057;28;20076;-34
2021/03/27 01:27:39;;;;;;;0.40;0.40;;;18.20;61.90;;;;;;4992196;28;20081;-34
2021/03/27 01:30:23;;;;;;;0.98;0.50;;;18.20;61.90;;;;;;4978181;28;20038;-34
2021/03/27 01:32:56;;;;;;;1.15;0.95;;;18.20;62.10;;;;;;4978964;28;20044;-34
2021/03/27 01:35:36;;;;;;;0.40;0.32;;;18.20;62.10;;;;;;5001514;28;20074;-34
2021/03/27 01:38:08;;;;;;;0.45;0.43;;;18.10;61.90;;;;;;4983039;28;20114;-34
2021/03/27 01:40:48;;;;;;;0.30;0.30;;;18.20;62.10;;;;;;5039682;28;20470;-34
2021/03/27 01:43:28;;;;;;;1.05;0.30;;;18.20;62.00;;;;;;5050537;28;20063;-34
2021/03/27 01:46:15;;;;;;;0.50;0.40;;;18.10;61.90;;;;;;5037536;28;20033;-34
2021/03/27 01:49:35;;;;;;;2.47;0.70;;;18.10;61.90;;;;;;5051947;28;20067;-34
2021/03/27 01:52:04;;;;;;;0.35;0.30;;;18.20;61.90;;;;;;4996509;28;20416;-35
2021/03/27 01:54:47;;;;;;;0.50;0.47;;;18.10;61.90;;;;;;4977481;28;20540;-34
2021/03/27 01:57:33;;;;;;;0.93;0.82;;;18.10;61.80;;;;;;5010710;28;20515;-34
2021/03/27 02:00:10;;;;;;;0.30;0.30;;;18.10;61.70;;;;;;4995276;28;20032;-34
2021/03/27 02:02:42;;;;;;;0.45;0.43;;;18.10;61.90;;;;;;4994085;28;20034;-34
2021/03/27 02:05:27;;;;;;;0.40;0.40;;;18.10;62.00;;;;;;4973247;28;20022;-34
2021/03/27 02:07:56;;;;;;;0.50;0.50;;;18.10;61.90;;;;;;4982318;28;20038;-34
2021/03/27 02:10:40;;;;;;;0.40;0.30;;;18.10;62.00;;;;;;4982055;28;20037;-34
2021/03/27 02:13:26;;;;;;;0.60;0.43;;;18.10;61.90;;;;;;4996500;28;20086;-34
2021/03/27 02:16:16;;;;;;;0.70;0.40;;;18.10;61.80;;;;;;4978470;28;20030;-35
2021/03/27 02:19:12;;;;;;;0.50;0.47;;;18.10;61.70;;;;;;4983233;28;20125;-38
2021/03/27 02:21:52;;;;;;;0.43;0.40;;;18.10;61.70;;;;;;5008330;28;20558;-34
2021/03/27 02:24:28;;;;;;;0.60;0.43;;;18.10;61.50;;;;;;5009123;28;20030;-34
2021/03/27 02:26:58;;;;;;;0.63;0.40;;;18.10;61.50;;;;;;5041029;28;20062;-34
2021/03/27 02:29:43;;;;;;;0.43;0.30;;;18.10;61.50;;;;;;5046029;28;20061;-34
2021/03/27 02:32:09;;;;;;;;;;;18.10;61.60;;;;;;5049535;28;20059;-34
2021/03/27 02:34:39;;;;;;;0.40;0.30;;;18.10;61.50;;;;;;5048417;28;19909;-34
2021/03/27 02:37:20;;;;;;;0.40;0.40;;;18.10;61.60;;;;;;5037052;28;20031;-34
2021/03/27 02:40:10;;;;;;;0.85;0.40;;;18.10;61.60;;;;;;5049265;28;20029;-34
2021/03/27 02:42:48;;;;;;;0.50;0.43;;;18.10;61.50;;;;;;5049720;28;20116;-34
2021/03/27 02:45:35;;;;;;;0.60;0.43;;;18.10;61.50;;;;;;5047476;28;20041;-34
2021/03/27 02:48:20;;;;;;;0.77;0.40;;;18.10;61.50;;;;;;5032359;28;20040;-34
2021/03/27 02:50:57;;;;;;;;;;;18.10;61.50;;;;;;5044310;28;20024;-34
2021/03/27 02:53:22;;;;;;;0.60;0.45;;;18.10;61.50;;;;;;5042947;28;19991;-35
2021/03/27 02:56:21;;;;;;;1.90;0.47;;;18.10;61.50;;;;;;5051071;28;20451;-34
2021/03/27 02:59:04;;;;;;;0.60;0.40;;;18.00;61.60;;;;;;5046849;28;20026;-34
2021/03/27 03:01:45;;;;;;;0.77;0.50;;;18.00;61.70;;;;;;5041577;28;20041;-35
2021/03/27 03:04:13;;;;;;;0.70;0.60;;;18.00;61.90;;;;;;5050904;28;20566;-35
2021/03/27 03:06:47;;;;;;;1.00;0.68;;;18.00;61.80;;;;;;5050698;28;20154;-34
2021/03/27 03:09:34;;;;;;;0.60;0.32;;;18.00;61.80;;;;;;5045792;28;20021;-34
2021/03/27 03:12:31;;;;;;;2.35;0.50;;;17.90;61.90;;;;;;5036037;28;20396;-34
2021/03/27 03:15:26;;;;;;;0.52;0.52;;;18.00;61.90;;;;;;5027035;28;20045;-34
2021/03/27 03:18:00;;;;;;;0.77;0.50;;;17.90;61.90;;;;;;5033056;28;20518;-35
2021/03/27 03:20:29;;;;;;;1.88;0.60;;;17.90;61.90;;;;;;5043587;28;20029;-34
2021/03/27 03:23:21;;;;;;;2.00;0.60;;;18.00;61.90;;;;;;5044711;28;20025;-35
2021/03/27 03:26:21;;;;;;;0.60;0.50;;;17.90;61.80;;;;;;5053717;28;20021;-35
2021/03/27 03:29:05;;;;;;;0.60;0.52;;;17.90;61.90;;;;;;5048205;28;20033;-33
2021/03/27 03:31:48;;;;;;;0.60;0.50;;;17.90;61.90;;;;;;5051262;28;20028;-34
2021/03/27 03:34:59;;;;;;;0.80;0.70;;;17.90;61.90;;;;;;5045434;28;20025;-32
2021/03/27 03:38:00;;;;;;;0.63;0.57;;;17.90;62.30;;;;;;5014404;28;20369;-34
2021/03/27 03:40:55;;;;;;;0.60;0.52;;;18.00;62.80;;;;;;4981480;28;20042;-32
2021/03/27 03:43:21;;;;;;;0.95;0.60;;;18.00;63.10;;;;;;4981783;28;20047;-32
2021/03/27 03:45:55;;;;;;;1.30;0.70;;;18.00;63.30;;;;;;4986583;28;20022;-34
2021/03/27 03:48:45;;;;;;;1.30;0.70;;;17.90;63.20;;;;;;4960546;28;20511;-34
2021/03/27 03:51:20;;;;;;;0.47;0.47;;;17.90;63.20;;;;;;4993062;28;20049;-32
2021/03/27 03:54:18;;;;;;;0.82;0.57;;;17.90;63.40;;;;;;4992361;28;20049;-33
2021/03/27 03:57:07;;;;;;;1.08;0.60;;;17.90;63.30;;;;;;4976257;28;20046;-38
2021/03/27 03:59:35;;;;;;;0.52;0.47;;;17.90;63.40;;;;;;4992272;28;20508;-33
2021/03/27 04:02:15;;;;;;;1.20;0.75;;;17.90;63.50;;;;;;4986188;28;20039;-33
2021/03/27 04:04:40;;;;;;;0.70;0.60;;;17.90;63.40;;;;;;4983936;28;20125;-32
2021/03/27 04:07:08;;;;;;;0.93;0.50;;;17.90;63.40;;;;;;4992014;28;20136;-32
2021/03/27 04:09:36;;;;;;;1.30;0.80;;;17.80;63.40;;;;;;4987320;28;20138;-34
2021/03/27 04:12:19;;;;;;;0.55;0.55;;;17.80;63.40;;;;;;4976986;28;20066;-33
2021/03/27 04:14:45;;;;;;;1.38;0.60;;;17.80;63.40;;;;;;4954207;28;20046;-32
2021/03/27 04:17:21;;;;;;;0.65;0.60;;;17.80;63.30;;;;;;5051757;28;20066;-32
2021/03/27 04:19:50;;;;;;;1.10;0.77;;;17.80;63.20;;;;;;5031893;28;20095;-34
2021/03/27 04:22:32;;;;;;;0.77;0.60;;;17.80;63.30;;;;;;5040694;28;20033;-33
2021/03/27 04:25:16;;;;;;;1.10;0.75;;;17.80;63.30;;;;;;5058838;28;20098;-32
2021/03/27 04:28:12;;;;;;;0.95;0.50;;;17.80;63.30;;;;;;5052658;28;20037;-34
2021/03/27 04:31:04;;;;;;;0.60;0.50;;;17.80;63.10;;;;;;5041321;28;20128;-32
2021/03/27 04:34:07;;;;;;;0.95;0.50;;;17.80;63.20;;;;;;5050338;28;20083;-37
2021/03/27 04:36:48;;;;;;;0.65;0.35;;;17.80;63.00;;;;;;5053433;28;20163;-34
2021/03/27 04:39:22;;;;;;;0.57;0.40;;;17.80;62.90;;;;;;5048468;28;20029;-34
2021/03/27 04:42:00;;;;;;;;;;;17.90;62.80;;;;;;5039548;28;20025;-33
2021/03/27 04:44:44;;;;;;;1.02;0.60;;;17.90;62.90;;;;;;5044167;28;20055;-33
2021/03/27 04:47:19;;;;;;;0.52;0.40;;;17.90;62.80;;;;;;5048672;28;20521;-33
2021/03/27 04:50:19;;;;;;;1.00;0.60;;;17.90;62.80;;;;;;5031151;28;20033;-34
2021/03/27 04:52:53;;;;;;;0.63;0.52;;;17.90;62.80;;;;;;5041788;28;20025;-33
2021/03/27 04:55:56;;;;;;;0.65;0.52;;;17.90;62.70;;;;;;5035039;28;20024;-32
2021/03/27 04:58:42;;;;;;;0.60;0.50;;;17.90;62.60;;;;;;5039351;28;20159;-34
2021/03/27 05:01:17;;;;;;;1.25;0.50;;;17.90;62.30;;;;;;5033289;28;20033;-32
2021/03/27 05:04:01;;;;;;;1.23;0.57;;;17.90;62.30;;;;;;5052554;28;20178;-33
2021/03/27 05:06:42;;;;;;;1.00;0.40;;;17.90;63.00;;;;;;5039765;28;20029;-34
2021/03/27 05:09:33;;;;;;;0.77;0.55;;;18.00;62.20;;;;;;5051284;28;20078;-33
2021/03/27 05:12:31;;;;;;;0.93;0.52;;;18.00;62.10;;;;;;5036534;28;20036;-34
2021/03/27 05:15:10;;;;;;;0.63;0.60;;;18.00;61.90;;;;;;5073774;28;20079;-32
2021/03/27 05:17:45;;;;;;;0.75;0.40;;;18.10;61.80;;;;;;5044698;28;20470;-32
2021/03/27 05:20:14;;;;;;;0.60;0.40;;;18.00;61.70;;;;;;5052224;28;20029;-33
2021/03/27 05:22:55;;;;;;;0.52;0.50;;;18.10;61.70;;;;;;5051048;28;20450;-34
2021/03/27 05:25:37;;;;;;;0.60;0.50;;;18.10;61.50;;;;;;5051786;28;20083;-34
2021/03/27 05:28:27;;;;;;;0.63;0.40;;;18.10;62.30;;;;;;5038640;28;20108;-33
2021/03/27 05:31:30;;;;;;;0.73;0.50;;;18.10;61.50;;;;;;5051006;28;20029;-32
2021/03/27 05:34:14;;;;;;;0.32;0.32;;;18.00;61.30;;;;;;5051721;28;20487;-32
2021/03/27 05:36:42;;;;;;;1.20;0.50;;;18.00;61.40;;;;;;5050793;28;20086;-32
2021/03/27 05:39:26;;;;;;;0.50;0.50;;;18.10;61.40;;;;;;5051786;28;20176;-34
2021/03/27 05:42:16;;;;;;;0.50;0.43;;;18.00;61.30;;;;;;5050453;28;20044;-34
2021/03/27 05:44:49;;;;;;;0.70;0.30;;;18.10;61.20;;;;;;5050645;28;20025;-33
2021/03/27 05:47:51;;;;;;;0.82;0.38;;;18.10;61.10;;;;;;5049965;28;20033;-33
2021/03/27 05:50:42;;;;;;;0.40;0.40;;;18.10;61.20;;;;;;5051373;28;20025;-33
2021/03/27 05:53:22;;;;;;;0.50;0.50;;;18.00;61.20;;;;;;5050392;28;20029;-35
2021/03/27 05:56:07;;;;;;;0.47;0.47;;;18.00;61.30;;;;;;5048700;28;20406;-34
2021/03/27 05:58:35;;;;;;;0.55;0.40;;;18.00;61.10;;;;;;5049925;28;20101;-33
2021/03/27 06:01:32;;;;;;;0.75;0.73;;;18.10;60.90;;;;;;5047363;28;20053;-34
2021/03/27 06:04:04;;;;;;;1.17;0.40;;;18.10;60.80;;;;;;5049480;28;20387;-34
2021/03/27 06:06:37;;;;;;;0.38;0.30;;;18.10;61.00;;;;;;5047756;28;20442;-33
2021/03/27 06:09:14;;;;;;;0.45;0.40;;;18.10;60.70;;;;;;5047722;28;20033;-32
2021/03/27 06:12:07;;;;;;;0.60;0.40;;;18.10;60.70;;;;;;5051119;28;20499;-34
2021/03/27 06:14:49;;;;;;;0.40;0.30;;;18.20;60.70;;;;;;5046322;28;20104;-33
2021/03/27 06:17:33;;;;;;;0.38;0.38;;;18.10;60.60;;;;;;5047090;28;20049;-34
2021/03/27 06:20:01;;;;;;;0.93;0.40;;;18.10;60.50;;;;;;5047006;28;20025;-35
2021/03/27 06:22:56;;;;;;;0.35;0.35;;;18.10;60.70;;;;;;5049609;28;20100;-34
2021/03/27 06:25:32;;;;;;;0.40;0.30;;;18.10;60.70;;;;;;5047734;28;20021;-36
2021/03/27 06:28:07;;;;;;;0.50;0.40;;;18.10;60.70;;;;;;5047838;28;20052;-34
2021/03/27 06:30:51;;;;;;;0.47;0.40;;;18.10;60.60;;;;;;5049758;28;20503;-33
2021/03/27 06:33:47;;;;;;;0.25;0.25;;;18.10;60.60;;;;;;5051287;28;20035;-33
2021/03/27 06:36:28;;;;;;;0.50;0.50;;;18.10;60.70;;;;;;5047787;28;20031;-32
2021/03/27 06:39:06;;;;;;;0.45;0.45;;;18.10;60.70;;;;;;5046243;28;20036;-33
2021/03/27 06:41:54;;;;;;;0.60;0.40;;;18.10;60.60;;;;;;5047945;28;20081;-35
2021/03/27 06:44:38;;;;;;;0.35;0.30;;;18.10;60.40;;;;;;5032606;28;20535;-34
2021/03/27 06:47:34;;;;;;;0.38;0.22;;;18.10;60.40;;;;;;5030358;28;20129;-35
2021/03/27 06:50:16;;;;;;;0.50;0.40;;;18.10;60.30;;;;;;5012209;28;20041;-34
2021/03/27 06:53:12;;;;;;;1.05;0.50;;;18.10;60.30;;;;;;5012731;28;20117;-34
2021/03/27 06:56:03;;;;;;;0.77;0.50;;;18.10;60.30;;;;;;5035422;28;20518;-33
2021/03/27 06:58:41;;;;;;;0.50;0.50;;;18.10;61.10;;;;;;5017804;28;20059;-34
2021/03/27 07:01:30;;;;;;;0.50;0.50;;;18.00;60.80;;;;;;5021599;28;20873;-35
2021/03/27 07:04:08;;;;;;;1.95;0.55;;;18.00;61.00;;;;;;5042944;28;20391;-34
2021/03/27 07:06:52;;;;;;;0.40;0.40;;;18.00;60.90;;;;;;5036480;28;20041;-34
2021/03/27 07:09:54;;;;;;;0.90;0.60;;;18.00;60.90;;;;;;5015071;28;20499;-34
2021/03/27 07:12:57;;;;;;;0.90;0.60;;;18.00;60.70;;;;;;5024289;28;20034;-34
2021/03/27 07:16:07;;;;;;;0.55;0.40;;;18.00;60.80;;;;;;5032274;28;20153;-34
2021/03/27 07:18:51;;;;;;;0.90;0.70;;;18.00;60.90;;;;;;4935385;29;20047;-35
2021/03/27 07:21:59;;;;;;;0.60;0.40;;;17.90;61.00;;;;;;4951329;28;20051;-33
2021/03/27 07:24:46;;;;;;;0.50;0.30;;;17.90;61.10;;;;;;4973095;28;20289;-34
2021/03/27 07:27:57;;;;;;;0.40;0.30;;;17.90;61.10;;;;;;4974158;28;20421;-36
2021/03/27 07:30:45;;;;;;;0.65;0.45;;;17.90;61.10;;;;;;4918119;29;20064;-37
2021/03/27 07:33:51;;;;;;;0.60;0.40;;;17.90;61.00;;;;;;4911291;29;20032;-37
2021/03/27 07:36:58;;;;;;;0.40;0.32;;;17.90;61.10;;;;;;4926666;29;20044;-35
2021/03/27 07:39:35;;;;;;;0.70;0.40;;;18.00;60.90;;;;;;4902761;29;20039;-35
2021/03/27 07:42:34;;;;;;;0.55;0.50;;;18.00;60.80;;;;;;4917648;29;20087;-36
2021/03/27 07:45:40;;;;;;;1.98;0.50;;;18.00;60.60;;;;;;4918238;29;20047;-34
2021/03/27 07:48:24;;;;;;;1.95;0.30;;;18.10;60.30;;;;;;4915445;29;20052;-34
2021/03/27 07:51:11;;;;;;;0.50;0.40;;;18.00;60.50;;;;;;4918242;29;20028;-33
2021/03/27 07:53:55;;;;;;;0.40;0.20;;;18.10;60.30;;;;;;4900573;29;20727;-32
2021/03/27 07:56:39;;;;;;;0.35;0.35;;;18.20;60.20;;;;;;4955105;28;20086;-33
2021/03/27 07:59:16;;;;;;;0.30;0.30;;;18.30;59.70;;;;;;4955085;28;20039;-34
2021/03/27 08:02:08;;;;;;;0.47;0.43;;;18.40;59.50;;;;;;4949378;29;20059;-32
2021/03/27 08:05:02;;;;;;;0.30;0.30;;;18.40;59.40;;;;;;4948891;29;20165;-34
2021/03/27 08:08:01;;;;;;;0.52;0.52;;;18.50;59.20;;;;;;4991687;28;20045;-35
2021/03/27 08:11:05;;;;;;;0.30;0.30;;;18.80;58.60;;;;;;5048939;28;20491;-34
2021/03/27 08:13:58;;;;;;;0.60;0.45;;;18.80;58.30;;;;;;5055736;28;20487;-35
2021/03/27 08:16:29;;;;;;;0.30;0.20;;;18.70;58.50;;;;;;5045699;28;20055;-32
2021/03/27 08:19:14;;;;;;;0.95;0.30;;;18.60;58.80;;;;;;5046417;28;20033;-35
2021/03/27 08:21:46;;;;;;;0.60;0.40;;;18.40;59.30;;;;;;5045981;28;20025;-33
2021/03/27 08:24:29;;;;;;;1.00;0.50;;;18.30;59.70;;;;;;5048017;28;20029;-36
2021/03/27 08:27:13;;;;;;;0.40;0.40;;;18.20;59.80;;;;;;5042888;28;20038;-33
2021/03/27 08:29:42;;;;;;;0.50;0.50;;;18.30;60.10;;;;;;5049520;28;20028;-34
2021/03/27 08:33:01;;;;;;;3.60;0.60;;;18.30;61.10;;;;;;5047568;28;20029;-34
2021/03/27 08:35:30;;;;;;;0.50;0.50;;;18.10;62.80;;;;;;4994684;28;20042;-33
2021/03/27 08:38:14;;;;;;;3.50;0.60;;;18.30;61.80;;;;;;5000782;28;20042;-34
2021/03/27 08:40:49;;;;;;;0.60;0.50;;;18.20;62.40;;;;;;4998357;28;20045;-35
2021/03/27 08:43:36;;;;;;;0.70;0.45;;;18.00;62.20;;;;;;4998275;28;20611;-35
2021/03/27 08:46:10;;;;;;;1.48;1.00;;;18.00;61.70;;;;;;5004277;28;20029;-37
2021/03/27 08:49:13;;;;;;;0.70;0.50;;;18.00;62.30;;;;;;4992797;28;20064;-34
2021/03/27 08:51:41;;;;;;;0.43;0.40;;;18.00;62.30;;;;;;4969025;28;20506;-34
2021/03/27 08:54:10;;;;;;;1.85;0.47;;;18.00;62.20;;;;;;4954583;28;20066;-34
2021/03/27 08:57:03;;;;;;;1.27;0.73;;;18.10;64.00;;;;;;4966485;28;20043;-36
2021/03/27 09:00:01;;;;;;;1.30;0.60;;;18.20;63.30;;;;;;4969004;28;20520;-33
2021/03/27 09:02:38;;;;;;;1.25;0.60;;;18.20;63.50;;;;;;4983095;28;20058;-35
2021/03/27 09:05:28;;;;;;;1.30;0.60;;;18.20;63.60;;;;;;4968458;28;20038;-34
2021/03/27 09:08:13;;;;;;;2.00;0.50;;;18.20;63.60;;;;;;4966542;28;20484;-35
2021/03/27 09:10:48;;;;;;;1.35;0.47;;;18.30;62.50;;;;;;5016283;28;20496;-35
2021/03/27 09:13:46;;;;;;;0.35;0.35;;;18.30;63.20;;;;;;5031162;28;20077;-35
2021/03/27 09:16:29;;;;;;;0.88;0.50;;;18.30;62.80;;;;;;4996807;28;20042;-31
2021/03/27 09:19:22;;;;;;;2.47;0.50;;;18.40;62.30;;;;;;5018740;28;20039;-32
2021/03/27 09:21:59;;;;;;;0.88;0.50;;;18.40;62.60;;;;;;5020118;28;20033;-34
2021/03/27 09:25:00;;;;;;;3.47;0.70;;;18.40;62.30;;;;;;5047199;28;20136;-34
2021/03/27 09:27:56;;;;;;;2.15;0.60;;;18.40;62.10;;;;;;5007484;28;20084;-35
2021/03/27 09:30:31;;;;;;;1.67;0.70;;;18.40;62.00;;;;;;5006713;28;20463;-33
2021/03/27 09:33:00;;;;;;;0.70;0.40;;;18.40;62.00;;;;;;5009093;28;20052;-31
2021/03/27 09:35:37;;;;;;;1.05;0.60;;;18.50;61.80;;;;;;5007639;28;20112;-34
2021/03/27 09:38:15;;;;;;;2.17;0.70;;;18.50;61.60;;;;;;4988017;28;20125;-34
2021/03/27 09:41:24;;;;;;;0.70;0.30;;;18.50;61.60;;;;;;4998761;28;20130;-33
2021/03/27 09:44:16;;;;;;;2.65;1.02;;;18.50;62.00;;;;;;4988950;28;20034;-35
2021/03/27 09:46:57;;;;;;;2.20;0.85;;;18.50;62.10;;;;;;4998297;28;20133;-37
2021/03/27 09:49:48;;;;;;;1.42;0.65;;;18.50;62.20;;;;;;4989709;28;20107;-36
2021/03/27 09:52:17;;;;;;;5.55;0.90;;;18.50;62.00;;;;;;4988320;28;20032;-36
2021/03/27 09:54:49;;;;;;;2.08;0.50;;;18.70;61.70;;;;;;5004039;28;20597;-37
2021/03/27 09:57:40;;;;;;;1.30;0.60;;;18.70;61.00;;;;;;4991250;28;20558;-36
2021/03/27 10:00:16;;;;;;;3.22;0.80;;;18.70;61.00;;;;;;4920953;29;20063;-36
2021/03/27 10:03:01;;;;;;;1.63;0.60;;;18.80;61.50;;;;;;4925742;28;20053;-36
2021/03/27 10:05:37;;;;;;;1.30;0.57;;;18.80;61.10;;;;;;4945329;28;20054;-36
2021/03/27 10:08:21;;;;;;;3.15;0.82;;;18.90;61.10;;;;;;4961961;28;20043;-37
2021/03/27 10:11:08;;;;;;;0.98;0.65;;;18.90;60.70;;;;;;4947070;28;20038;-36
2021/03/27 10:13:57;;;;;;;3.47;0.80;;;19.00;60.90;;;;;;4977392;28;20062;-36
2021/03/27 10:16:45;;;;;;;1.77;0.80;;;19.00;61.10;;;;;;4962102;28;20497;-36
2021/03/27 10:19:17;;;;;;;0.98;0.57;;;18.90;61.30;;;;;;4975051;28;20034;-37
2021/03/27 10:22:22;;;;;;;1.95;0.88;;;18.90;61.50;;;;;;4974144;28;20109;-36
2021/03/27 10:25:07;;;;;;;2.00;0.70;;;18.90;61.40;;;;;;4970626;28;20030;-35
2021/03/27 10:27:48;;;;;;;0.75;0.40;;;18.80;61.60;;;;;;4988057;28;20042;-34
2021/03/27 10:30:17;;;;;;;1.42;0.73;;;18.80;61.60;;;;;;4970530;28;20174;-36
2021/03/27 10:32:55;;;;;;;1.40;0.63;;;18.80;61.10;;;;;;5001236;28;20046;-43
2021/03/27 10:35:25;;;;;;;0.60;0.52;;;18.90;60.90;;;;;;4990464;28;20421;-44
2021/03/27 10:38:28;;;;;;;2.90;0.70;;;19.00;60.40;;;;;;5034037;28;20044;-44
2021/03/27 10:40:57;;;;;;;1.05;0.60;;;19.10;60.00;;;;;;5044298;28;20036;-47
2021/03/27 10:43:34;;;;;;;1.15;0.70;;;19.20;59.80;;;;;;5045883;28;20021;-44
2021/03/27 10:46:33;;;;;;;0.93;0.73;;;19.20;59.70;;;;;;5049986;28;20112;-43
2021/03/27 10:49:13;;;;;;;2.78;0.85;;;19.20;59.50;;;;;;5035266;28;20109;-35
2021/03/27 10:52:13;;;;;;;1.45;0.70;;;19.30;59.50;;;;;;5043809;28;20025;-39
2021/03/27 10:55:05;;;;;;;1.90;0.60;;;19.40;59.40;;;;;;5047681;28;20037;-40
2021/03/27 10:57:58;;;;;;;0.80;0.60;;;19.50;59.20;;;;;;5045872;28;20486;-39
2021/03/27 11:00:54;;;;;;;0.95;0.55;;;19.50;59.10;;;;;;5039101;28;20494;-43
2021/03/27 11:03:50;;;;;;;1.80;0.70;;;19.50;59.00;;;;;;5040293;28;20127;-42
2021/03/27 11:06:53;;;;;;;0.70;0.43;;;19.50;59.20;;;;;;5041501;28;20435;-41
2021/03/27 11:09:52;;;;;;;1.17;0.57;;;19.50;59.30;;;;;;5041152;28;20056;-43
2021/03/27 11:12:33;;;;;;;1.27;0.80;;;19.50;59.00;;;;;;5039526;28;20043;-41
2021/03/27 11:15:20;;;;;;;2.15;0.63;;;19.50;58.70;;;;;;5041536;28;20109;-42
2021/03/27 11:18:10;;;;;;;2.22;0.90;;;19.50;59.10;;;;;;5036591;28;20053;-37
2021/03/27 11:20:48;;;;;;;1.25;0.70;;;19.50;59.10;;;;;;5039624;28;20067;-38
2021/03/27 11:23:32;;;;;;;2.00;0.80;;;19.50;58.50;;;;;;5040347;28;20096;-39
2021/03/27 11:26:00;;;;;;;;;;;19.60;58.80;;;;;;5035795;28;20064;-36
2021/03/27 11:28:47;;;;;;;3.28;0.77;;;19.50;59.00;;;;;;5039667;28;20008;-38
2021/03/27 11:31:29;;;;;;;1.45;0.77;;;19.60;57.70;;;;;;5046625;28;20032;-35
2021/03/27 11:33:58;;;;;;;2.70;0.90;;;19.50;58.10;;;;;;5025568;28;20032;-37
2021/03/27 11:36:37;;;;;;;2.13;0.85;;;19.40;58.60;;;;;;5048609;28;20116;-40
2021/03/27 11:39:41;;;;;;;1.38;0.95;;;19.50;58.40;;;;;;5048236;28;20040;-40
2021/03/27 11:42:34;;;;;;;1.60;0.80;;;19.50;58.60;;;;;;4999088;28;20467;-36
2021/03/27 11:45:13;;;;;;;1.23;0.73;;;19.60;58.20;;;;;;5000905;28;20060;-31
2021/03/27 11:48:00;;;;;;;3.97;1.67;;;19.60;58.00;;;;;;4972327;28;20068;-35
2021/03/27 11:51:01;;;;;;;2.05;0.90;;;19.70;58.00;;;;;;4988420;28;20624;-36
2021/03/27 11:53:50;;;;;;;1.50;0.80;;;19.70;57.80;;;;;;4976710;28;20084;-36
2021/03/27 11:56:54;;;;;;;1.10;0.60;;;19.70;57.70;;;;;;4990176;28;20057;-36
2021/03/27 12:02:34;;;;;;;1.08;0.60;;;19.70;57.90;;;;;;4642933;28;10000514;-41
2021/03/27 12:05:54;;;;;;;3.08;0.70;;;19.60;58.20;;;;;;4987384;28;20038;-42
2021/03/27 12:08:34;;;;;;;2.83;1.58;;;19.60;58.50;;;;;;4977005;28;20045;-41
2021/03/27 12:11:28;;;;;;;1.35;0.80;;;19.60;59.10;;;;;;4977628;28;20807;-41
2021/03/27 12:14:01;;;;;;;1.30;1.00;;;19.60;58.60;;;;;;4962448;28;20042;-41
2021/03/27 12:16:48;;;;;;;2.22;1.00;;;19.70;58.60;;;;;;4963199;28;20058;-37
2021/03/27 12:19:29;;;;;;;1.88;0.85;;;19.70;58.50;;;;;;4953320;28;20046;-33
2021/03/27 12:21:57;;;;;;;1.85;0.80;;;19.80;58.60;;;;;;4961112;28;20126;-36
2021/03/27 12:25:00;;;;;;;1.48;1.10;;;19.70;59.10;;;;;;4978479;28;20042;-32
2021/03/27 12:27:32;;;;;;;1.02;0.80;;;19.60;59.30;;;;;;4982769;28;20046;-41
2021/03/27 12:30:18;;;;;;;0.80;0.70;;;19.80;59.10;;;;;;4968867;28;20098;-40
2021/03/27 12:32:54;;;;;;;1.42;0.93;;;19.80;58.80;;;;;;4969280;28;20283;-37
2021/03/27 12:35:26;;;;;;;1.58;0.70;;;19.80;58.90;;;;;;4969272;28;20046;-40
2021/03/27 12:37:55;;;;;;;1.70;1.10;;;19.90;58.80;;;;;;4980018;28;20057;-31
2021/03/27 12:40:27;;;;;;;1.52;1.10;;;20.00;59.00;;;;;;4985117;28;20046;-39
2021/03/27 12:42:56;;;;;;;0.98;0.85;;;19.90;59.10;;;;;;5020679;28;20067;-36
2021/03/27 12:45:25;;;;;;;1.52;0.88;;;20.00;59.00;;;;;;5048370;28;20041;-31
2021/03/27 12:47:56;;;;;;;1.00;0.82;;;20.00;59.00;;;;;;5034871;28;20028;-38
2021/03/27 12:50:39;;;;;;;3.10;0.93;;;20.00;59.10;;;;;;5041012;28;20406;-40
2021/03/27 12:53:17;;;;;;;1.48;0.70;;;20.00;59.50;;;;;;5046771;28;20029;-36
2021/03/27 12:56:17;;;;;;;1.65;0.82;;;20.00;59.30;;;;;;5046115;28;20055;-39
2021/03/27 12:58:53;;;;;;;1.10;1.00;;;20.00;59.40;;;;;;5039450;28;20033;-42
2021/03/27 13:01:40;;;;;;;2.60;1.00;;;19.90;59.60;;;;;;5023554;28;20025;-42
2021/03/27 13:04:43;;;;;;;1.45;1.00;;;19.80;59.30;;;;;;5040705;28;20514;-43
2021/03/27 13:07:58;;;;;;;1.02;0.88;;;19.70;59.70;;;;;;5038834;28;20041;-43
2021/03/27 13:10:48;;;;;;;2.35;1.50;;;19.60;59.70;;;;;;4977388;28;20038;-40
2021/03/27 13:13:19;;;;;;;1.73;0.98;;;19.50;59.70;;;;;;4978856;28;20115;-41
2021/03/27 13:16:04;;;;;;;1.88;0.82;;;19.50;59.00;;;;;;4978381;28;20066;-40
2021/03/27 13:18:36;;;;;;;1.10;1.00;;;19.40;60.30;;;;;;4978119;28;20084;-40
2021/03/27 13:21:07;;;;;;;2.50;1.25;;;19.40;59.30;;;;;;4978738;28;20038;-36
2021/03/27 13:24:04;;;;;;;1.40;1.10;;;19.30;59.80;;;;;;4978089;28;20040;-46
2021/03/27 13:26:31;;;;;;;1.35;1.08;;;19.40;55.90;;;;;;4952629;28;20042;-36
2021/03/27 13:28:56;;;;;;;1.65;1.15;;;19.40;58.30;;;;;;4945609;28;20054;-43
2021/03/27 13:31:37;;;;;;;1.45;1.08;;;19.60;57.30;;;;;;4977087;28;20103;-37
2021/03/27 13:34:34;;;;;;;3.75;1.20;;;19.60;58.10;;;;;;4947524;28;20503;-39
2021/03/27 13:37:12;;;;;;;2.85;0.82;;;19.50;56.70;;;;;;4961800;28;20439;-40
2021/03/27 13:39:46;;;;;;;2.17;1.13;;;19.50;56.40;;;;;;4945120;28;20104;-41
2021/03/27 13:42:34;;;;;;;2.17;1.10;;;19.60;56.50;;;;;;5048197;28;20628;-44
2021/03/27 13:45:27;;;;;;;1.95;1.30;;;19.60;56.00;;;;;;5038471;28;20072;-38
2021/03/27 13:48:13;;;;;;;1.83;1.10;;;19.50;56.20;;;;;;5038374;28;20063;-32
2021/03/27 13:51:17;;;;;;;2.80;1.30;;;19.50;56.60;;;;;;5026849;28;20835;-41
2021/03/27 13:53:58;;;;;;;2.05;1.25;;;19.50;53.90;;;;;;5040423;28;20701;-37
2021/03/27 13:56:27;;;;;;;3.67;0.90;;;19.50;56.60;;;;;;5037601;28;20129;-36
2021/03/27 13:59:04;;;;;;;2.00;1.38;;;19.50;56.80;;;;;;5039331;28;20787;-43
2021/03/27 14:01:34;;;;;;;1.73;1.38;;;19.40;54.80;;;;;;5037500;28;20376;-36
2021/03/27 14:04:26;;;;;;;2.63;0.95;;;19.50;56.30;;;;;;5039472;28;20045;-29
2021/03/27 14:07:07;;;;;;;3.75;1.13;;;19.40;55.90;;;;;;5037561;28;20905;-38
2021/03/27 14:10:11;;;;;;;2.17;1.10;;;19.30;54.60;;;;;;5038286;28;20029;-35
2021/03/27 14:13:08;;;;;;;1.20;1.00;;;19.30;57.10;;;;;;4983198;28;20128;-30